sensor_id;sensor_type;location;lat;lon;timestamp;P1;durP1;ratioP1;P2;durP2;ratioP2
3159;SDS011;1591;51.486;7.146;2022-08-23T00:02:13;5.40;;;3.33;;
3159;SDS011;1591;51.486;7.146;2022-08-23T00:04:41;5.93;;;3.50;;
3159;SDS011;1591;51.486;7.146;2022-08-23T00:07:12;4.87;;;3.33;;
3159;SDS011;1591;51.486;7.146;2022-08-23T00:09:40;4.70;;;3.20;;
3159;SDS011;1591;51.486;7.146;2022-08-23T00:12:09;3.50;;;3.03;;
3159;SDS011;1591;51.486;7.146;2022-08-23T00:14:42;4.93;;;3.90;;
3159;SDS011;1591;51.486;7.146;2022-08-23T00:17:12;3.60;;;3.27;;
3159;SDS011;1591;51.486;7.146;2022-08-23T00:19:40;4.00;;;3.27;;
3159;SDS011;1591;51.486;7.146;2022-08-23T00:22:09;4.27;;;3.87;;
3159;SDS011;1591;51.486;7.146;2022-08-23T00:24:38;3.93;;;3.50;;
3159;SDS011;1591;51.486;7.146;2022-08-23T00:27:05;4.80;;;4.00;;
3159;SDS011;1591;51.486;7.146;2022-08-23T00:29:38;6.80;;;3.90;;
3159;SDS011;1591;51.486;7.146;2022-08-23T00:32:08;5.07;;;3.80;;
3159;SDS011;1591;51.486;7.146;2022-08-23T00:34:42;9.60;;;4.40;;
3159;SDS011;1591;51.486;7.146;2022-08-23T00:37:09;5.23;;;3.80;;
3159;SDS011;1591;51.486;7.146;2022-08-23T00:39:38;5.30;;;3.70;;
3159;SDS011;1591;51.486;7.146;2022-08-23T00:42:10;6.93;;;3.73;;
3159;SDS011;1591;51.486;7.146;2022-08-23T00:44:59;4.23;;;3.83;;
3159;SDS011;1591;51.486;7.146;2022-08-23T00:47:48;4.20;;;3.73;;
3159;SDS011;1591;51.486;7.146;2022-08-23T00:50:19;5.10;;;3.77;;
3159;SDS011;1591;51.486;7.146;2022-08-23T00:52:55;7.67;;;3.87;;
3159;SDS011;1591;51.486;7.146;2022-08-23T00:55:30;7.20;;;4.20;;
3159;SDS011;1591;51.486;7.146;2022-08-23T00:57:59;5.43;;;4.20;;
3159;SDS011;1591;51.486;7.146;2022-08-23T01:00:28;6.93;;;4.07;;
3159;SDS011;1591;51.486;7.146;2022-08-23T01:02:56;10.23;;;4.10;;
3159;SDS011;1591;51.486;7.146;2022-08-23T01:05:34;7.13;;;4.40;;
3159;SDS011;1591;51.486;7.146;2022-08-23T01:08:10;7.93;;;3.60;;
3159;SDS011;1591;51.486;7.146;2022-08-23T01:10:40;8.53;;;4.40;;
3159;SDS011;1591;51.486;7.146;2022-08-23T01:13:22;6.70;;;4.60;;
3159;SDS011;1591;51.486;7.146;2022-08-23T01:15:55;6.93;;;4.30;;
3159;SDS011;1591;51.486;7.146;2022-08-23T01:18:26;5.33;;;4.37;;
3159;SDS011;1591;51.486;7.146;2022-08-23T01:20:56;8.93;;;4.23;;
3159;SDS011;1591;51.486;7.146;2022-08-23T01:23:33;8.03;;;4.67;;
3159;SDS011;1591;51.486;7.146;2022-08-23T01:26:07;8.47;;;4.37;;
3159;SDS011;1591;51.486;7.146;2022-08-23T01:28:37;9.00;;;4.60;;
3159;SDS011;1591;51.486;7.146;2022-08-23T01:31:05;7.60;;;4.60;;
3159;SDS011;1591;51.486;7.146;2022-08-23T01:33:32;10.43;;;4.60;;
3159;SDS011;1591;51.486;7.146;2022-08-23T01:36:00;8.60;;;4.50;;
3159;SDS011;1591;51.486;7.146;2022-08-23T01:38:33;7.40;;;4.33;;
3159;SDS011;1591;51.486;7.146;2022-08-23T01:41:00;7.20;;;4.10;;
3159;SDS011;1591;51.486;7.146;2022-08-23T01:43:27;8.30;;;4.40;;
3159;SDS011;1591;51.486;7.146;2022-08-23T01:45:55;9.90;;;4.73;;
3159;SDS011;1591;51.486;7.146;2022-08-23T01:48:23;4.20;;;3.70;;
3159;SDS011;1591;51.486;7.146;2022-08-23T01:50:50;7.40;;;4.43;;
3159;SDS011;1591;51.486;7.146;2022-08-23T01:53:17;4.80;;;4.17;;
3159;SDS011;1591;51.486;7.146;2022-08-23T01:55:47;5.60;;;4.33;;
3159;SDS011;1591;51.486;7.146;2022-08-23T01:58:14;10.90;;;4.33;;
3159;SDS011;1591;51.486;7.146;2022-08-23T02:00:42;9.83;;;5.20;;
3159;SDS011;1591;51.486;7.146;2022-08-23T02:03:09;7.33;;;4.23;;
3159;SDS011;1591;51.486;7.146;2022-08-23T02:05:37;4.73;;;4.17;;
3159;SDS011;1591;51.486;7.146;2022-08-23T02:08:07;6.70;;;4.60;;
3159;SDS011;1591;51.486;7.146;2022-08-23T02:10:54;6.67;;;4.77;;
3159;SDS011;1591;51.486;7.146;2022-08-23T02:13:22;7.30;;;4.73;;
3159;SDS011;1591;51.486;7.146;2022-08-23T02:15:49;5.73;;;4.50;;
3159;SDS011;1591;51.486;7.146;2022-08-23T02:18:17;5.90;;;4.70;;
3159;SDS011;1591;51.486;7.146;2022-08-23T02:20:46;8.70;;;4.60;;
3159;SDS011;1591;51.486;7.146;2022-08-23T02:23:16;6.20;;;4.80;;
3159;SDS011;1591;51.486;7.146;2022-08-23T02:25:43;7.40;;;5.13;;
3159;SDS011;1591;51.486;7.146;2022-08-23T02:28:12;6.00;;;4.53;;
3159;SDS011;1591;51.486;7.146;2022-08-23T02:30:39;9.33;;;4.90;;
3159;SDS011;1591;51.486;7.146;2022-08-23T02:33:06;6.43;;;5.53;;
3159;SDS011;1591;51.486;7.146;2022-08-23T02:35:33;8.37;;;4.70;;
3159;SDS011;1591;51.486;7.146;2022-08-23T02:38:01;7.20;;;5.13;;
3159;SDS011;1591;51.486;7.146;2022-08-23T02:40:29;8.87;;;5.40;;
3159;SDS011;1591;51.486;7.146;2022-08-23T02:42:56;8.47;;;5.43;;
3159;SDS011;1591;51.486;7.146;2022-08-23T02:45:25;12.00;;;4.50;;
3159;SDS011;1591;51.486;7.146;2022-08-23T02:47:53;8.33;;;5.10;;
3159;SDS011;1591;51.486;7.146;2022-08-23T02:50:21;5.93;;;5.33;;
3159;SDS011;1591;51.486;7.146;2022-08-23T02:52:49;6.80;;;5.43;;
3159;SDS011;1591;51.486;7.146;2022-08-23T02:55:16;6.90;;;5.37;;
3159;SDS011;1591;51.486;7.146;2022-08-23T02:57:44;10.10;;;5.87;;
3159;SDS011;1591;51.486;7.146;2022-08-23T03:00:13;6.40;;;5.80;;
3159;SDS011;1591;51.486;7.146;2022-08-23T03:02:44;7.70;;;4.97;;
3159;SDS011;1591;51.486;7.146;2022-08-23T03:05:12;7.10;;;5.53;;
3159;SDS011;1591;51.486;7.146;2022-08-23T03:07:41;8.87;;;5.30;;
3159;SDS011;1591;51.486;7.146;2022-08-23T03:10:08;10.70;;;5.73;;
3159;SDS011;1591;51.486;7.146;2022-08-23T03:12:37;6.17;;;5.17;;
3159;SDS011;1591;51.486;7.146;2022-08-23T03:15:05;7.17;;;5.67;;
3159;SDS011;1591;51.486;7.146;2022-08-23T03:17:33;6.37;;;5.20;;
3159;SDS011;1591;51.486;7.146;2022-08-23T03:20:02;6.90;;;5.10;;
3159;SDS011;1591;51.486;7.146;2022-08-23T03:22:30;7.90;;;5.73;;
3159;SDS011;1591;51.486;7.146;2022-08-23T03:24:57;6.00;;;5.00;;
3159;SDS011;1591;51.486;7.146;2022-08-23T03:27:25;7.60;;;5.00;;
3159;SDS011;1591;51.486;7.146;2022-08-23T03:29:52;7.93;;;5.67;;
3159;SDS011;1591;51.486;7.146;2022-08-23T03:32:19;9.30;;;5.67;;
3159;SDS011;1591;51.486;7.146;2022-08-23T03:34:46;6.10;;;5.30;;
3159;SDS011;1591;51.486;7.146;2022-08-23T03:37:15;7.57;;;5.53;;
3159;SDS011;1591;51.486;7.146;2022-08-23T03:39:42;10.77;;;5.40;;
3159;SDS011;1591;51.486;7.146;2022-08-23T03:42:09;10.83;;;5.77;;
3159;SDS011;1591;51.486;7.146;2022-08-23T03:44:36;7.90;;;6.17;;
3159;SDS011;1591;51.486;7.146;2022-08-23T03:47:03;10.87;;;5.43;;
3159;SDS011;1591;51.486;7.146;2022-08-23T03:49:31;6.70;;;6.10;;
3159;SDS011;1591;51.486;7.146;2022-08-23T03:51:59;6.73;;;5.90;;
3159;SDS011;1591;51.486;7.146;2022-08-23T03:54:27;6.90;;;5.63;;
3159;SDS011;1591;51.486;7.146;2022-08-23T03:56:55;6.53;;;5.80;;
3159;SDS011;1591;51.486;7.146;2022-08-23T03:59:25;8.93;;;6.10;;
3159;SDS011;1591;51.486;7.146;2022-08-23T04:01:53;6.73;;;5.73;;
3159;SDS011;1591;51.486;7.146;2022-08-23T04:04:20;12.27;;;6.10;;
3159;SDS011;1591;51.486;7.146;2022-08-23T04:06:49;8.13;;;6.10;;
3159;SDS011;1591;51.486;7.146;2022-08-23T04:09:16;6.80;;;5.70;;
3159;SDS011;1591;51.486;7.146;2022-08-23T04:11:45;7.83;;;5.60;;
3159;SDS011;1591;51.486;7.146;2022-08-23T04:14:12;7.10;;;6.00;;
3159;SDS011;1591;51.486;7.146;2022-08-23T04:16:40;11.10;;;6.20;;
3159;SDS011;1591;51.486;7.146;2022-08-23T04:19:08;11.77;;;6.43;;
3159;SDS011;1591;51.486;7.146;2022-08-23T04:21:40;12.13;;;6.43;;
3159;SDS011;1591;51.486;7.146;2022-08-23T04:24:17;9.00;;;6.07;;
3159;SDS011;1591;51.486;7.146;2022-08-23T04:26:47;14.70;;;6.60;;
3159;SDS011;1591;51.486;7.146;2022-08-23T04:29:15;8.80;;;6.37;;
3159;SDS011;1591;51.486;7.146;2022-08-23T04:31:44;15.83;;;6.67;;
3159;SDS011;1591;51.486;7.146;2022-08-23T04:34:11;9.07;;;6.40;;
3159;SDS011;1591;51.486;7.146;2022-08-23T04:36:39;9.20;;;6.50;;
3159;SDS011;1591;51.486;7.146;2022-08-23T04:39:08;9.40;;;6.40;;
3159;SDS011;1591;51.486;7.146;2022-08-23T04:41:35;13.40;;;6.20;;
3159;SDS011;1591;51.486;7.146;2022-08-23T04:44:21;9.30;;;6.00;;
3159;SDS011;1591;51.486;7.146;2022-08-23T04:46:48;7.20;;;5.53;;
3159;SDS011;1591;51.486;7.146;2022-08-23T04:49:16;7.87;;;5.80;;
3159;SDS011;1591;51.486;7.146;2022-08-23T04:51:43;10.17;;;5.70;;
3159;SDS011;1591;51.486;7.146;2022-08-23T04:54:10;7.50;;;5.07;;
3159;SDS011;1591;51.486;7.146;2022-08-23T04:56:38;7.70;;;5.03;;
3159;SDS011;1591;51.486;7.146;2022-08-23T04:59:05;7.80;;;5.10;;
3159;SDS011;1591;51.486;7.146;2022-08-23T05:01:34;6.20;;;5.07;;
3159;SDS011;1591;51.486;7.146;2022-08-23T05:04:01;6.40;;;5.80;;
3159;SDS011;1591;51.486;7.146;2022-08-23T05:06:29;8.80;;;5.50;;
3159;SDS011;1591;51.486;7.146;2022-08-23T05:08:56;6.53;;;5.10;;
3159;SDS011;1591;51.486;7.146;2022-08-23T05:11:23;6.27;;;5.10;;
3159;SDS011;1591;51.486;7.146;2022-08-23T05:13:51;7.40;;;5.07;;
3159;SDS011;1591;51.486;7.146;2022-08-23T05:16:18;7.23;;;5.57;;
3159;SDS011;1591;51.486;7.146;2022-08-23T05:18:46;8.50;;;4.97;;
3159;SDS011;1591;51.486;7.146;2022-08-23T05:21:14;7.07;;;5.40;;
3159;SDS011;1591;51.486;7.146;2022-08-23T05:23:42;8.73;;;5.07;;
3159;SDS011;1591;51.486;7.146;2022-08-23T05:26:10;9.13;;;6.13;;
3159;SDS011;1591;51.486;7.146;2022-08-23T05:28:39;10.63;;;5.80;;
3159;SDS011;1591;51.486;7.146;2022-08-23T05:31:09;7.20;;;5.90;;
3159;SDS011;1591;51.486;7.146;2022-08-23T05:33:40;8.07;;;6.40;;
3159;SDS011;1591;51.486;7.146;2022-08-23T05:36:11;8.47;;;6.73;;
3159;SDS011;1591;51.486;7.146;2022-08-23T05:38:40;8.57;;;6.67;;
3159;SDS011;1591;51.486;7.146;2022-08-23T05:41:08;12.33;;;7.10;;
3159;SDS011;1591;51.486;7.146;2022-08-23T05:43:36;17.43;;;7.37;;
3159;SDS011;1591;51.486;7.146;2022-08-23T05:46:04;12.67;;;7.03;;
3159;SDS011;1591;51.486;7.146;2022-08-23T05:48:35;11.03;;;6.93;;
3159;SDS011;1591;51.486;7.146;2022-08-23T05:51:12;16.23;;;7.00;;
3159;SDS011;1591;51.486;7.146;2022-08-23T05:53:42;10.40;;;6.50;;
3159;SDS011;1591;51.486;7.146;2022-08-23T05:56:11;14.00;;;6.20;;
3159;SDS011;1591;51.486;7.146;2022-08-23T05:58:40;10.97;;;6.23;;
3159;SDS011;1591;51.486;7.146;2022-08-23T06:01:09;11.83;;;6.80;;
3159;SDS011;1591;51.486;7.146;2022-08-23T06:03:37;12.07;;;6.10;;
3159;SDS011;1591;51.486;7.146;2022-08-23T06:06:05;10.63;;;7.03;;
3159;SDS011;1591;51.486;7.146;2022-08-23T06:08:34;15.67;;;7.10;;
3159;SDS011;1591;51.486;7.146;2022-08-23T06:11:04;16.93;;;6.97;;
3159;SDS011;1591;51.486;7.146;2022-08-23T06:13:37;14.77;;;6.60;;
3159;SDS011;1591;51.486;7.146;2022-08-23T06:16:07;18.97;;;6.93;;
3159;SDS011;1591;51.486;7.146;2022-08-23T06:18:35;12.53;;;6.60;;
3159;SDS011;1591;51.486;7.146;2022-08-23T06:21:03;13.70;;;6.83;;
3159;SDS011;1591;51.486;7.146;2022-08-23T06:23:36;22.87;;;7.20;;
3159;SDS011;1591;51.486;7.146;2022-08-23T06:26:08;13.30;;;6.60;;
3159;SDS011;1591;51.486;7.146;2022-08-23T06:28:38;15.17;;;6.17;;
3159;SDS011;1591;51.486;7.146;2022-08-23T06:31:05;12.10;;;5.93;;
3159;SDS011;1591;51.486;7.146;2022-08-23T06:33:32;17.67;;;6.80;;
3159;SDS011;1591;51.486;7.146;2022-08-23T06:36:01;12.87;;;5.80;;
3159;SDS011;1591;51.486;7.146;2022-08-23T06:38:32;10.00;;;5.33;;
3159;SDS011;1591;51.486;7.146;2022-08-23T06:41:04;7.43;;;3.60;;
3159;SDS011;1591;51.486;7.146;2022-08-23T06:43:35;7.83;;;3.90;;
3159;SDS011;1591;51.486;7.146;2022-08-23T06:46:09;6.20;;;3.73;;
3159;SDS011;1591;51.486;7.146;2022-08-23T06:48:41;3.50;;;3.20;;
3159;SDS011;1591;51.486;7.146;2022-08-23T06:51:11;6.13;;;3.07;;
3159;SDS011;1591;51.486;7.146;2022-08-23T06:53:40;5.10;;;2.63;;
3159;SDS011;1591;51.486;7.146;2022-08-23T06:56:08;3.03;;;2.73;;
3159;SDS011;1591;51.486;7.146;2022-08-23T06:58:35;9.37;;;3.73;;
3159;SDS011;1591;51.486;7.146;2022-08-23T07:01:10;6.43;;;3.13;;
3159;SDS011;1591;51.486;7.146;2022-08-23T07:03:41;5.23;;;3.00;;
3159;SDS011;1591;51.486;7.146;2022-08-23T07:06:08;3.50;;;2.70;;
3159;SDS011;1591;51.486;7.146;2022-08-23T07:08:35;4.83;;;3.20;;
3159;SDS011;1591;51.486;7.146;2022-08-23T07:11:04;7.30;;;3.00;;
3159;SDS011;1591;51.486;7.146;2022-08-23T07:13:32;4.13;;;2.67;;
3159;SDS011;1591;51.486;7.146;2022-08-23T07:16:01;4.77;;;2.67;;
3159;SDS011;1591;51.486;7.146;2022-08-23T07:18:29;4.27;;;2.93;;
3159;SDS011;1591;51.486;7.146;2022-08-23T07:20:57;5.77;;;2.90;;
3159;SDS011;1591;51.486;7.146;2022-08-23T07:23:27;5.67;;;2.70;;
3159;SDS011;1591;51.486;7.146;2022-08-23T07:25:59;8.27;;;3.30;;
3159;SDS011;1591;51.486;7.146;2022-08-23T07:28:31;8.13;;;3.63;;
3159;SDS011;1591;51.486;7.146;2022-08-23T07:31:04;5.00;;;2.60;;
3159;SDS011;1591;51.486;7.146;2022-08-23T07:33:34;4.40;;;2.73;;
3159;SDS011;1591;51.486;7.146;2022-08-23T07:36:02;7.47;;;2.83;;
3159;SDS011;1591;51.486;7.146;2022-08-23T07:38:30;2.73;;;2.43;;
3159;SDS011;1591;51.486;7.146;2022-08-23T07:40:57;6.67;;;2.90;;
3159;SDS011;1591;51.486;7.146;2022-08-23T07:43:24;5.47;;;3.53;;
3159;SDS011;1591;51.486;7.146;2022-08-23T07:45:53;8.70;;;3.37;;
3159;SDS011;1591;51.486;7.146;2022-08-23T07:48:20;4.57;;;2.60;;
3159;SDS011;1591;51.486;7.146;2022-08-23T07:50:51;4.90;;;2.73;;
3159;SDS011;1591;51.486;7.146;2022-08-23T07:53:21;3.63;;;2.60;;
3159;SDS011;1591;51.486;7.146;2022-08-23T07:55:49;2.87;;;2.53;;
3159;SDS011;1591;51.486;7.146;2022-08-23T07:58:16;4.63;;;2.70;;
3159;SDS011;1591;51.486;7.146;2022-08-23T08:00:45;7.03;;;2.50;;
3159;SDS011;1591;51.486;7.146;2022-08-23T08:03:14;4.20;;;2.90;;
3159;SDS011;1591;51.486;7.146;2022-08-23T08:05:41;4.97;;;2.53;;
3159;SDS011;1591;51.486;7.146;2022-08-23T08:08:08;5.03;;;2.77;;
3159;SDS011;1591;51.486;7.146;2022-08-23T08:10:36;6.70;;;2.60;;
3159;SDS011;1591;51.486;7.146;2022-08-23T08:13:05;9.63;;;2.93;;
3159;SDS011;1591;51.486;7.146;2022-08-23T08:15:33;4.50;;;2.60;;
3159;SDS011;1591;51.486;7.146;2022-08-23T08:18:00;5.10;;;2.83;;
3159;SDS011;1591;51.486;7.146;2022-08-23T08:20:29;8.10;;;3.00;;
3159;SDS011;1591;51.486;7.146;2022-08-23T08:22:59;6.23;;;3.07;;
3159;SDS011;1591;51.486;7.146;2022-08-23T08:25:26;10.70;;;3.37;;
3159;SDS011;1591;51.486;7.146;2022-08-23T08:27:56;9.93;;;2.60;;
3159;SDS011;1591;51.486;7.146;2022-08-23T08:30:24;6.83;;;3.20;;
3159;SDS011;1591;51.486;7.146;2022-08-23T08:32:51;5.13;;;3.20;;
3159;SDS011;1591;51.486;7.146;2022-08-23T08:35:19;4.60;;;2.93;;
3159;SDS011;1591;51.486;7.146;2022-08-23T08:37:47;6.83;;;2.77;;
3159;SDS011;1591;51.486;7.146;2022-08-23T08:40:14;7.07;;;3.53;;
3159;SDS011;1591;51.486;7.146;2022-08-23T08:42:50;10.63;;;3.20;;
3159;SDS011;1591;51.486;7.146;2022-08-23T08:45:39;6.23;;;3.00;;
3159;SDS011;1591;51.486;7.146;2022-08-23T08:48:23;11.00;;;3.23;;
3159;SDS011;1591;51.486;7.146;2022-08-23T08:50:53;9.07;;;4.00;;
3159;SDS011;1591;51.486;7.146;2022-08-23T08:53:33;6.60;;;3.50;;
3159;SDS011;1591;51.486;7.146;2022-08-23T08:56:06;13.40;;;3.50;;
3159;SDS011;1591;51.486;7.146;2022-08-23T08:58:46;10.33;;;3.50;;
3159;SDS011;1591;51.486;7.146;2022-08-23T09:01:16;12.97;;;3.23;;
3159;SDS011;1591;51.486;7.146;2022-08-23T09:03:44;9.13;;;3.40;;
3159;SDS011;1591;51.486;7.146;2022-08-23T09:06:14;7.03;;;2.90;;
3159;SDS011;1591;51.486;7.146;2022-08-23T09:09:03;4.50;;;3.00;;
3159;SDS011;1591;51.486;7.146;2022-08-23T09:11:49;8.33;;;3.00;;
3159;SDS011;1591;51.486;7.146;2022-08-23T09:14:35;8.13;;;3.60;;
3159;SDS011;1591;51.486;7.146;2022-08-23T09:17:28;8.50;;;4.40;;
3159;SDS011;1591;51.486;7.146;2022-08-23T09:20:04;9.30;;;3.47;;
3159;SDS011;1591;51.486;7.146;2022-08-23T09:22:35;4.47;;;3.50;;
3159;SDS011;1591;51.486;7.146;2022-08-23T09:25:09;7.40;;;3.33;;
3159;SDS011;1591;51.486;7.146;2022-08-23T09:27:37;6.60;;;3.33;;
3159;SDS011;1591;51.486;7.146;2022-08-23T09:30:05;4.10;;;3.10;;
3159;SDS011;1591;51.486;7.146;2022-08-23T09:32:36;5.97;;;3.27;;
3159;SDS011;1591;51.486;7.146;2022-08-23T09:35:07;4.57;;;3.23;;
3159;SDS011;1591;51.486;7.146;2022-08-23T09:37:46;5.40;;;3.70;;
3159;SDS011;1591;51.486;7.146;2022-08-23T09:40:36;5.37;;;3.27;;
3159;SDS011;1591;51.486;7.146;2022-08-23T09:43:10;5.87;;;3.17;;
3159;SDS011;1591;51.486;7.146;2022-08-23T09:45:41;7.40;;;3.33;;
3159;SDS011;1591;51.486;7.146;2022-08-23T09:48:31;9.80;;;3.53;;
3159;SDS011;1591;51.486;7.146;2022-08-23T09:51:06;4.43;;;3.37;;
3159;SDS011;1591;51.486;7.146;2022-08-23T09:53:50;4.43;;;3.20;;
3159;SDS011;1591;51.486;7.146;2022-08-23T09:56:35;4.73;;;3.47;;
3159;SDS011;1591;51.486;7.146;2022-08-23T09:59:19;5.47;;;3.17;;
3159;SDS011;1591;51.486;7.146;2022-08-23T10:02:04;8.80;;;2.93;;
3159;SDS011;1591;51.486;7.146;2022-08-23T10:04:59;4.90;;;3.70;;
3159;SDS011;1591;51.486;7.146;2022-08-23T10:07:33;6.10;;;3.10;;
3159;SDS011;1591;51.486;7.146;2022-08-23T10:10:17;6.70;;;3.40;;
3159;SDS011;1591;51.486;7.146;2022-08-23T10:13:04;3.90;;;3.30;;
3159;SDS011;1591;51.486;7.146;2022-08-23T10:15:37;8.87;;;3.63;;
3159;SDS011;1591;51.486;7.146;2022-08-23T10:18:22;4.53;;;3.23;;
3159;SDS011;1591;51.486;7.146;2022-08-23T10:21:02;11.73;;;3.60;;
3159;SDS011;1591;51.486;7.146;2022-08-23T10:23:39;3.20;;;2.90;;
3159;SDS011;1591;51.486;7.146;2022-08-23T10:26:16;7.20;;;2.90;;
3159;SDS011;1591;51.486;7.146;2022-08-23T10:28:55;5.43;;;3.30;;
3159;SDS011;1591;51.486;7.146;2022-08-23T10:31:51;4.87;;;3.60;;
3159;SDS011;1591;51.486;7.146;2022-08-23T10:34:38;16.23;;;4.23;;
3159;SDS011;1591;51.486;7.146;2022-08-23T10:37:33;5.50;;;3.00;;
3159;SDS011;1591;51.486;7.146;2022-08-23T10:40:18;7.60;;;3.30;;
3159;SDS011;1591;51.486;7.146;2022-08-23T10:42:55;4.40;;;3.10;;
3159;SDS011;1591;51.486;7.146;2022-08-23T10:45:39;6.47;;;3.50;;
3159;SDS011;1591;51.486;7.146;2022-08-23T10:48:14;7.53;;;4.10;;
3159;SDS011;1591;51.486;7.146;2022-08-23T10:50:52;6.37;;;3.63;;
3159;SDS011;1591;51.486;7.146;2022-08-23T10:53:26;8.63;;;3.50;;
3159;SDS011;1591;51.486;7.146;2022-08-23T10:56:02;8.77;;;3.47;;
3159;SDS011;1591;51.486;7.146;2022-08-23T10:58:41;8.53;;;3.43;;
3159;SDS011;1591;51.486;7.146;2022-08-23T11:01:18;8.80;;;3.80;;
3159;SDS011;1591;51.486;7.146;2022-08-23T11:03:51;10.83;;;3.63;;
3159;SDS011;1591;51.486;7.146;2022-08-23T11:06:41;6.67;;;3.53;;
3159;SDS011;1591;51.486;7.146;2022-08-23T11:12:30;10.60;;;3.90;;
3159;SDS011;1591;51.486;7.146;2022-08-23T11:15:10;6.40;;;3.37;;
3159;SDS011;1591;51.486;7.146;2022-08-23T11:17:55;5.10;;;3.40;;
3159;SDS011;1591;51.486;7.146;2022-08-23T11:23:38;7.60;;;3.67;;
3159;SDS011;1591;51.486;7.146;2022-08-23T11:29:35;5.87;;;3.40;;
3159;SDS011;1591;51.486;7.146;2022-08-23T11:32:14;7.70;;;3.17;;
3159;SDS011;1591;51.486;7.146;2022-08-23T11:35:21;7.97;;;3.43;;
3159;SDS011;1591;51.486;7.146;2022-08-23T11:38:09;3.90;;;3.10;;
3159;SDS011;1591;51.486;7.146;2022-08-23T11:40:39;8.53;;;3.37;;
3159;SDS011;1591;51.486;7.146;2022-08-23T11:43:42;4.57;;;2.93;;
3159;SDS011;1591;51.486;7.146;2022-08-23T11:46:13;6.23;;;3.27;;
3159;SDS011;1591;51.486;7.146;2022-08-23T11:49:12;5.53;;;3.00;;
3159;SDS011;1591;51.486;7.146;2022-08-23T11:56:08;4.33;;;2.97;;
3159;SDS011;1591;51.486;7.146;2022-08-23T11:58:59;4.10;;;2.87;;
3159;SDS011;1591;51.486;7.146;2022-08-23T12:01:43;4.97;;;3.00;;
3159;SDS011;1591;51.486;7.146;2022-08-23T12:04:24;3.60;;;2.97;;
3159;SDS011;1591;51.486;7.146;2022-08-23T12:06:59;10.97;;;3.00;;
3159;SDS011;1591;51.486;7.146;2022-08-23T12:12:32;3.07;;;2.70;;
3159;SDS011;1591;51.486;7.146;2022-08-23T12:15:03;7.10;;;3.00;;
3159;SDS011;1591;51.486;7.146;2022-08-23T12:20:41;3.10;;;2.57;;
3159;SDS011;1591;51.486;7.146;2022-08-23T12:23:18;3.10;;;2.67;;
3159;SDS011;1591;51.486;7.146;2022-08-23T12:26:02;6.50;;;2.70;;
3159;SDS011;1591;51.486;7.146;2022-08-23T12:28:39;10.90;;;3.20;;
3159;SDS011;1591;51.486;7.146;2022-08-23T12:31:19;4.50;;;2.80;;
3159;SDS011;1591;51.486;7.146;2022-08-23T12:33:56;7.23;;;3.30;;
3159;SDS011;1591;51.486;7.146;2022-08-23T12:36:38;8.17;;;3.17;;
3159;SDS011;1591;51.486;7.146;2022-08-23T12:39:22;14.37;;;3.33;;
3159;SDS011;1591;51.486;7.146;2022-08-23T12:42:03;6.50;;;2.80;;
3159;SDS011;1591;51.486;7.146;2022-08-23T12:44:43;4.53;;;2.87;;
3159;SDS011;1591;51.486;7.146;2022-08-23T12:47:40;6.10;;;2.70;;
3159;SDS011;1591;51.486;7.146;2022-08-23T12:50:17;6.10;;;3.27;;
3159;SDS011;1591;51.486;7.146;2022-08-23T12:52:55;4.27;;;2.80;;
3159;SDS011;1591;51.486;7.146;2022-08-23T12:55:28;7.23;;;2.70;;
3159;SDS011;1591;51.486;7.146;2022-08-23T12:58:02;4.27;;;2.93;;
3159;SDS011;1591;51.486;7.146;2022-08-23T13:00:32;7.27;;;2.70;;
3159;SDS011;1591;51.486;7.146;2022-08-23T13:03:13;6.53;;;3.17;;
3159;SDS011;1591;51.486;7.146;2022-08-23T13:05:56;8.10;;;3.27;;
3159;SDS011;1591;51.486;7.146;2022-08-23T13:08:38;4.17;;;2.70;;
3159;SDS011;1591;51.486;7.146;2022-08-23T13:11:12;4.53;;;2.23;;
3159;SDS011;1591;51.486;7.146;2022-08-23T13:13:49;5.17;;;2.30;;
3159;SDS011;1591;51.486;7.146;2022-08-23T13:16:24;3.90;;;2.70;;
3159;SDS011;1591;51.486;7.146;2022-08-23T13:19:13;5.17;;;2.73;;
3159;SDS011;1591;51.486;7.146;2022-08-23T13:22:10;7.03;;;2.20;;
3159;SDS011;1591;51.486;7.146;2022-08-23T13:24:40;5.03;;;2.20;;
3159;SDS011;1591;51.486;7.146;2022-08-23T13:27:20;4.70;;;2.00;;
3159;SDS011;1591;51.486;7.146;2022-08-23T13:29:56;3.93;;;2.37;;
3159;SDS011;1591;51.486;7.146;2022-08-23T13:38:22;4.77;;;2.47;;
3159;SDS011;1591;51.486;7.146;2022-08-23T13:40:58;3.30;;;2.20;;
3159;SDS011;1591;51.486;7.146;2022-08-23T13:43:35;3.80;;;1.93;;
3159;SDS011;1591;51.486;7.146;2022-08-23T13:46:15;8.20;;;2.00;;
3159;SDS011;1591;51.486;7.146;2022-08-23T13:48:47;2.60;;;2.23;;
3159;SDS011;1591;51.486;7.146;2022-08-23T13:51:24;9.03;;;2.07;;
3159;SDS011;1591;51.486;7.146;2022-08-23T13:54:03;8.07;;;2.60;;
3159;SDS011;1591;51.486;7.146;2022-08-23T13:56:35;3.27;;;2.20;;
3159;SDS011;1591;51.486;7.146;2022-08-23T13:59:16;5.47;;;2.80;;
3159;SDS011;1591;51.486;7.146;2022-08-23T14:01:53;7.47;;;2.47;;
3159;SDS011;1591;51.486;7.146;2022-08-23T14:04:22;5.97;;;2.37;;
3159;SDS011;1591;51.486;7.146;2022-08-23T14:06:49;3.77;;;2.20;;
3159;SDS011;1591;51.486;7.146;2022-08-23T14:09:17;3.43;;;2.60;;
3159;SDS011;1591;51.486;7.146;2022-08-23T14:11:44;2.27;;;2.07;;
3159;SDS011;1591;51.486;7.146;2022-08-23T14:14:15;5.10;;;2.33;;
3159;SDS011;1591;51.486;7.146;2022-08-23T14:16:43;5.63;;;2.60;;
3159;SDS011;1591;51.486;7.146;2022-08-23T14:19:15;4.40;;;2.33;;
3159;SDS011;1591;51.486;7.146;2022-08-23T14:21:42;5.10;;;2.40;;
3159;SDS011;1591;51.486;7.146;2022-08-23T14:24:10;3.57;;;2.70;;
3159;SDS011;1591;51.486;7.146;2022-08-23T14:26:38;4.70;;;2.90;;
3159;SDS011;1591;51.486;7.146;2022-08-23T14:29:05;4.70;;;2.50;;
3159;SDS011;1591;51.486;7.146;2022-08-23T14:31:35;7.23;;;2.57;;
3159;SDS011;1591;51.486;7.146;2022-08-23T14:34:06;4.60;;;2.40;;
3159;SDS011;1591;51.486;7.146;2022-08-23T14:36:39;4.93;;;2.73;;
3159;SDS011;1591;51.486;7.146;2022-08-23T14:39:11;5.90;;;2.53;;
3159;SDS011;1591;51.486;7.146;2022-08-23T14:41:39;8.00;;;2.57;;
3159;SDS011;1591;51.486;7.146;2022-08-23T14:44:06;6.47;;;2.70;;
3159;SDS011;1591;51.486;7.146;2022-08-23T14:46:37;3.93;;;2.83;;
3159;SDS011;1591;51.486;7.146;2022-08-23T14:49:07;6.70;;;2.60;;
3159;SDS011;1591;51.486;7.146;2022-08-23T14:51:40;5.73;;;2.50;;
3159;SDS011;1591;51.486;7.146;2022-08-23T14:54:12;7.43;;;2.87;;
3159;SDS011;1591;51.486;7.146;2022-08-23T14:56:43;9.70;;;2.80;;
3159;SDS011;1591;51.486;7.146;2022-08-23T14:59:11;5.23;;;2.43;;
3159;SDS011;1591;51.486;7.146;2022-08-23T15:01:41;5.07;;;2.50;;
3159;SDS011;1591;51.486;7.146;2022-08-23T15:04:16;7.23;;;2.80;;
3159;SDS011;1591;51.486;7.146;2022-08-23T15:06:48;7.37;;;2.60;;
3159;SDS011;1591;51.486;7.146;2022-08-23T15:09:17;8.93;;;2.83;;
3159;SDS011;1591;51.486;7.146;2022-08-23T15:11:46;6.30;;;2.73;;
3159;SDS011;1591;51.486;7.146;2022-08-23T15:14:15;7.50;;;2.80;;
3159;SDS011;1591;51.486;7.146;2022-08-23T15:16:43;4.60;;;2.73;;
3159;SDS011;1591;51.486;7.146;2022-08-23T15:19:12;4.87;;;2.70;;
3159;SDS011;1591;51.486;7.146;2022-08-23T15:21:42;9.80;;;3.33;;
3159;SDS011;1591;51.486;7.146;2022-08-23T15:24:17;12.27;;;3.17;;
3159;SDS011;1591;51.486;7.146;2022-08-23T15:26:45;8.70;;;2.97;;
3159;SDS011;1591;51.486;7.146;2022-08-23T15:29:15;7.03;;;2.93;;
3159;SDS011;1591;51.486;7.146;2022-08-23T15:31:42;6.20;;;2.83;;
3159;SDS011;1591;51.486;7.146;2022-08-23T15:34:16;4.27;;;2.47;;
3159;SDS011;1591;51.486;7.146;2022-08-23T15:36:45;5.10;;;3.00;;
3159;SDS011;1591;51.486;7.146;2022-08-23T15:39:17;8.93;;;3.03;;
3159;SDS011;1591;51.486;7.146;2022-08-23T15:41:44;7.53;;;3.13;;
3159;SDS011;1591;51.486;7.146;2022-08-23T15:44:12;3.27;;;2.40;;
3159;SDS011;1591;51.486;7.146;2022-08-23T15:46:39;3.87;;;2.50;;
3159;SDS011;1591;51.486;7.146;2022-08-23T15:49:15;6.87;;;2.67;;
3159;SDS011;1591;51.486;7.146;2022-08-23T15:51:46;10.83;;;2.73;;
3159;SDS011;1591;51.486;7.146;2022-08-23T15:54:30;6.30;;;2.47;;
3159;SDS011;1591;51.486;7.146;2022-08-23T15:56:58;6.93;;;2.73;;
3159;SDS011;1591;51.486;7.146;2022-08-23T15:59:26;5.03;;;2.80;;
3159;SDS011;1591;51.486;7.146;2022-08-23T16:01:56;7.00;;;2.63;;
3159;SDS011;1591;51.486;7.146;2022-08-23T16:04:23;8.33;;;2.67;;
3159;SDS011;1591;51.486;7.146;2022-08-23T16:06:52;6.93;;;3.10;;
3159;SDS011;1591;51.486;7.146;2022-08-23T16:09:22;4.03;;;2.40;;
3159;SDS011;1591;51.486;7.146;2022-08-23T16:11:51;5.27;;;2.60;;